Terminal Aerodrome Forecast
Issued by NWS Knoxville/Tri Cities, TN

Home | Current Version | Previous Version | Text Only | Print | Product List | Glossary On
Versions: 1 2 3 4 5 6 7 8 9 10 11 12
000
FTUS44 KMRX 252335
TAFCHA
TAF
KCHA 252335Z 2600/2624 VRB02KT P6SM SCT070 BKN120
     FM261400 VRB03KT P6SM SCT050 SCT150 BKN200
     FM262000 22004KT P6SM VCTS SCT060CB BKN150=

USA.gov is the U.S. government's official web portal to all federal, state and local government web resources and services.